.
WxDataArchive / Data Records for 2013-10-13
2013-10-12 October 2013 2013-10-14

Data Records for Sunday, 13 October 2013

Time	Temp	Chill	HIndex	Humid	Dewpt	 Wind 	HiWind	WindDir	Rain 	Barom 
-----	----	-----	------	-----	-----	------	------	-------	-----	----- 
00:00	68.1	68.1	68.1	64	55.5	0	2	112	0.00	30.071 
00:05	68.1	68.1	68.1	64	55.5	1	3	135	0.00	30.071 
00:10	68.3	68.3	68.3	65	56.1	1	2	135	0.00	30.071 
00:15	68.3	68.3	68.3	65	56.1	1	3	135	0.00	30.073 
00:20	67.9	67.9	67.9	66	56.1	0	1	225	0.00	30.073 
00:25	67.8	67.8	67.8	67	56.4	1	2	225	0.00	30.073 
00:30	67.6	67.6	67.6	68	56.7	0	1	225	0.00	30.077 
00:35	67.4	67.4	67.4	69	56.9	0	2	225	0.00	30.077 
00:40	67.3	67.3	67.3	70	57.2	0	2	225	0.00	30.077 
00:45	67.3	67.3	67.3	71	57.6	1	3	225	0.00	30.078 
00:50	67.1	67.1	67.1	73	58.1	1	4	292	0.00	30.078 
00:55	67.1	67.1	67.1	73	58.1	1	3	292	0.00	30.078 
01:00	66.9	66.9	66.9	74	58.3	1	4	292	0.00	30.081 
01:05	66.8	66.8	66.8	76	59.0	1	5	292	0.00	30.081 
01:10	66.6	66.6	66.6	77	59.2	2	5	270	0.00	30.081 
01:15	66.6	66.6	66.6	77	59.2	1	5	292	0.00	30.087 
01:20	66.4	66.4	66.4	78	59.3	1	3	292	0.00	30.087 
01:25	66.3	66.3	66.3	78	59.2	1	5	292	0.00	30.087 
01:30	66.1	66.1	66.1	79	59.4	1	3	292	0.00	30.093 
01:35	66.0	66.0	66.0	79	59.3	0	3	292	0.00	30.093 
01:40	66.0	66.0	66.0	80	59.6	0	3	292	0.00	30.093 
01:45	65.8	65.8	65.8	80	59.5	0	1	292	0.00	30.101 
01:50	65.8	65.8	65.8	81	59.8	0	2	292	0.00	30.101 
01:55	65.6	65.6	65.6	81	59.6	0	2	292	0.00	30.101 
02:00	65.5	65.5	65.5	81	59.5	1	4	292	0.00	30.105 
02:05	65.3	65.3	65.3	81	59.3	0	2	292	0.00	30.105 
02:10	65.2	65.2	65.2	80	58.9	0	2	292	0.00	30.105 
02:15	65.0	65.0	65.0	80	58.7	1	4	292	0.00	30.107 
02:20	64.8	64.8	64.8	80	58.5	0	2	292	0.00	30.107 
02:25	64.8	64.8	64.8	80	58.5	0	3	292	0.00	30.107 
02:30	64.7	64.7	64.7	80	58.4	0	2	292	0.00	30.112 
02:35	64.5	64.5	64.5	80	58.2	1	2	292	0.00	30.112 
02:40	64.3	64.3	64.3	80	58.0	0	1	292	0.00	30.112 
02:45	64.0	64.0	64.0	81	58.0	0	2	292	0.00	30.121 
02:50	63.9	63.9	63.9	81	57.9	0	2	292	0.00	30.121 
02:55	63.7	63.7	63.7	81	57.8	0	2	292	0.00	30.121 
03:00	63.5	63.5	63.5	82	57.9	0	1	292	0.00	30.129 
03:05	63.5	63.5	63.5	82	57.9	1	4	292	0.00	30.129 
03:10	63.4	63.4	63.4	82	57.8	0	3	292	0.00	30.129 
03:15	63.2	63.2	63.2	83	57.9	0	1	292	0.00	30.136 
03:20	62.9	62.9	62.9	83	57.7	0	4	292	0.00	30.136 
03:25	62.7	62.7	62.7	83	57.5	0	2	338	0.00	30.136 
03:30	62.4	62.4	62.4	83	57.2	0	1	338	0.00	30.138 
03:35	62.3	62.3	62.3	84	57.4	0	2	338	0.00	30.138 
03:40	62.1	62.1	62.1	84	57.2	0	1	338	0.00	30.138 
03:45	61.8	61.8	61.8	84	56.9	0	2	338	0.00	30.143 
03:50	61.6	61.6	61.6	83	56.4	0	2	338	0.00	30.143 
03:55	61.5	61.5	61.5	83	56.3	0	1	338	0.00	30.143 
04:00	61.3	61.3	61.3	82	55.8	0	2	338	0.00	30.147 
04:05	61.2	61.2	61.2	82	55.7	0	0	---	0.00	30.147 
04:10	61.0	61.0	61.0	82	55.5	0	1	338	0.00	30.147 
04:15	60.7	60.7	60.7	82	55.2	0	2	338	0.00	30.149 
04:20	60.5	60.5	60.5	81	54.6	0	2	338	0.00	30.149 
04:25	60.4	60.4	60.4	81	54.5	0	1	292	0.00	30.149 
04:30	60.2	60.2	60.2	80	54.0	0	1	292	0.00	30.161 
04:35	60.1	60.1	60.1	80	53.9	0	1	292	0.00	30.161 
04:40	59.9	59.9	59.9	80	53.7	0	1	292	0.00	30.161 
04:45	59.8	59.8	59.8	80	53.6	0	1	292	0.00	30.165 
04:50	59.6	59.6	59.6	80	53.4	0	1	292	0.00	30.165 
04:55	59.3	59.3	59.3	80	53.1	0	1	292	0.00	30.165 
05:00	59.2	59.2	59.2	80	53.0	0	1	292	0.00	30.177 
05:05	59.0	59.0	59.0	80	52.8	0	1	292	0.00	30.177 
05:10	58.9	58.9	58.9	80	52.7	0	1	292	0.00	30.177 
05:15	58.6	58.6	58.6	80	52.4	0	1	292	0.00	30.185 
05:20	58.3	58.3	58.3	80	52.2	0	1	292	0.00	30.185 
05:25	58.1	58.1	58.1	80	52.0	0	1	292	0.00	30.185 
05:30	57.8	57.8	57.8	81	52.0	0	0	---	0.00	30.196 
05:35	57.6	57.6	57.6	81	51.8	0	0	---	0.00	30.196 
05:40	57.3	57.3	57.3	81	51.5	0	0	---	0.00	30.196 
05:45	57.2	57.2	57.2	81	51.4	0	0	---	0.00	30.201 
05:50	56.9	56.9	56.9	81	51.1	0	0	---	0.00	30.201 
05:55	56.6	56.6	56.6	81	50.8	0	1	292	0.00	30.201 
06:00	56.5	56.5	56.5	82	51.1	0	0	---	0.00	30.201 
06:05	56.3	56.3	56.3	82	50.9	0	1	292	0.00	30.201 
06:10	56.2	56.2	56.2	82	50.8	0	0	---	0.00	30.201 
06:15	56.0	56.0	56.0	82	50.6	0	0	---	0.00	30.206 
06:20	55.9	55.9	55.9	82	50.5	0	0	---	0.00	30.206 
06:25	55.6	55.6	55.6	83	50.5	0	0	---	0.00	30.206 
06:30	55.4	55.4	55.4	83	50.3	0	0	---	0.00	30.212 
06:35	55.1	55.1	55.1	83	50.0	0	0	---	0.00	30.212 
06:40	55.0	55.0	55.0	84	50.3	0	0	---	0.00	30.212 
06:45	54.7	54.7	54.7	84	50.0	0	0	---	0.00	30.218 
06:50	54.4	54.4	54.4	84	49.7	0	0	---	0.00	30.218 
06:55	54.1	54.1	54.1	85	49.7	0	0	---	0.00	30.218 
07:00	53.6	53.6	53.6	85	49.2	0	0	---	0.00	30.224 
07:05	53.3	53.3	53.3	85	48.9	0	0	---	0.00	30.224 
07:10	53.1	53.1	53.1	86	49.0	0	0	---	0.00	30.224 
07:15	52.8	52.8	52.8	86	48.7	0	0	---	0.00	30.235 
07:20	52.5	52.5	52.5	87	48.7	0	0	---	0.00	30.235 
07:25	52.2	52.2	52.2	87	48.4	0	0	---	0.00	30.235 
07:30	52.0	52.0	52.0	88	48.6	0	0	---	0.00	30.240 
07:35	51.7	51.7	51.7	88	48.3	0	0	---	0.00	30.240 
07:40	51.4	51.4	51.4	88	48.0	0	0	---	0.00	30.240 
07:45	51.1	51.1	51.1	88	47.7	0	0	---	0.00	30.249 
07:50	51.0	51.0	51.0	89	47.9	0	0	---	0.00	30.249 
07:55	51.0	51.0	51.0	90	48.2	0	0	---	0.00	30.249 
08:00	51.0	51.0	51.0	90	48.2	0	0	---	0.00	30.253 
08:05	50.8	50.8	50.8	90	48.0	0	0	---	0.00	30.253 
08:10	50.7	50.7	50.7	90	47.9	0	0	---	0.00	30.253 
08:15	50.7	50.7	50.7	91	48.2	0	0	---	0.00	30.258 
08:20	50.7	50.7	50.7	91	48.2	0	0	---	0.00	30.258 
08:25	50.8	50.8	50.8	91	48.3	0	0	---	0.00	30.258 
08:30	50.8	50.8	50.8	91	48.3	0	0	---	0.00	30.262 
08:35	51.1	51.1	51.1	91	48.6	0	0	---	0.00	30.262 
08:40	51.4	51.4	51.4	91	48.9	0	0	---	0.00	30.262 
08:45	51.9	51.9	51.9	91	49.4	0	0	---	0.00	30.265 
08:50	52.2	52.2	52.2	91	49.7	0	0	---	0.00	30.265 
08:55	52.5	52.5	52.5	90	49.7	0	1	292	0.00	30.265 
09:00	52.9	52.9	52.9	89	49.7	0	1	292	0.00	30.272 
09:05	53.3	53.3	53.3	88	49.8	0	0	---	0.00	30.272 
09:10	53.6	53.6	53.6	87	49.8	0	1	292	0.00	30.272 
09:15	53.9	53.9	53.9	86	49.8	0	1	292	0.00	30.277 
09:20	54.2	54.2	54.2	84	49.5	0	3	292	0.00	30.277 
09:25	54.7	54.7	54.7	83	49.6	0	1	292	0.00	30.277 
09:30	55.0	55.0	55.0	81	49.3	0	2	292	0.00	30.284 
09:35	55.3	55.3	55.3	80	49.2	0	1	292	0.00	30.284 
09:40	55.7	55.7	55.7	78	48.9	0	1	292	0.00	30.284 
09:45	56.2	56.2	56.2	76	48.7	0	2	292	0.00	30.286 
09:50	56.5	56.5	56.5	74	48.3	0	2	112	0.00	30.286 
09:55	56.9	56.9	56.9	73	48.3	0	2	112	0.00	30.286 
10:00	57.3	57.3	57.3	70	47.6	0	2	112	0.00	30.287 
10:05	57.8	57.8	57.8	68	47.3	0	3	112	0.00	30.287 
10:10	58.3	58.3	58.3	68	47.8	0	1	112	0.00	30.287 
10:15	59.0	59.0	59.0	65	47.2	0	2	112	0.00	30.287 
10:20	59.5	59.5	59.5	62	46.5	0	2	112	0.00	30.287 
10:25	59.9	59.9	59.9	62	46.8	0	2	112	0.00	30.287 
10:30	60.7	60.7	60.7	62	47.6	0	2	112	0.00	30.292 
10:35	61.3	61.3	61.3	58	46.4	0	2	112	0.00	30.292 
10:40	61.6	61.6	61.6	56	45.7	1	4	112	0.00	30.292 
10:45	61.8	61.8	61.8	55	45.5	1	2	22	0.00	30.294 
10:50	61.8	61.8	61.8	52	44.0	1	4	22	0.00	30.294 
10:55	62.0	62.0	62.0	50	43.1	2	5	315	0.00	30.294 
11:00	62.1	62.1	62.1	50	43.2	2	6	315	0.00	30.298 
11:05	62.6	62.6	62.6	51	44.2	1	3	292	0.00	30.298 
11:10	62.7	62.7	62.7	48	42.7	1	4	292	0.00	30.298 
11:15	63.1	63.1	63.1	48	43.1	1	4	292	0.00	30.297 
11:20	63.2	63.2	63.2	45	41.5	2	6	292	0.00	30.297 
11:25	63.4	63.4	63.4	46	42.3	1	5	292	0.00	30.297 
11:30	63.5	63.5	63.5	43	40.6	2	4	315	0.00	30.295 
11:35	63.7	63.7	63.7	43	40.8	1	3	292	0.00	30.295 
11:40	64.0	64.0	64.0	44	41.6	1	4	292	0.00	30.295 
11:45	64.3	64.3	64.3	43	41.3	1	4	315	0.00	30.295 
11:50	64.5	64.5	64.5	42	40.9	1	4	315	0.00	30.295 
11:55	64.7	64.7	64.7	42	41.1	1	3	112	0.00	30.295 
12:00	65.2	65.2	65.2	42	41.5	1	4	135	0.00	30.293 
12:05	65.2	65.2	65.2	42	41.5	1	3	45	0.00	30.293 
12:10	65.2	65.2	65.2	44	42.7	1	3	270	0.00	30.293 
12:15	65.5	65.5	65.5	43	42.4	1	3	158	0.00	30.293 
12:20	65.3	65.3	65.3	43	42.2	1	4	338	0.00	30.293 
12:25	65.5	65.5	65.5	43	42.4	0	3	338	0.00	30.293 
12:30	65.6	65.6	65.6	42	41.9	0	2	338	0.00	30.289 
12:35	65.8	65.8	65.8	39	40.1	1	3	338	0.00	30.289 
12:40	66.0	66.0	66.0	43	42.9	0	3	292	0.00	30.289 
12:45	66.0	66.0	66.0	39	40.3	2	4	315	0.00	30.293 
12:50	65.8	65.8	65.8	39	40.1	1	3	315	0.00	30.293 
12:55	66.0	66.0	66.0	39	40.3	1	5	315	0.00	30.293 
13:00	66.0	66.0	66.0	40	41.0	1	4	315	0.00	30.291 
13:05	66.1	66.1	66.1	39	40.4	1	3	315	0.00	30.291 
13:10	66.4	66.4	66.4	38	40.0	1	3	315	0.00	30.291 
13:15	66.6	66.6	66.6	39	40.9	1	3	292	0.00	30.288 
13:20	66.6	66.6	66.6	35	38.1	1	2	292	0.00	30.288 
13:25	66.6	66.6	66.6	36	38.8	1	3	292	0.00	30.288 
13:30	66.8	66.8	66.8	35	38.3	1	4	292	0.00	30.285 
13:35	66.9	66.9	66.9	36	39.1	1	4	270	0.00	30.285 
13:40	66.9	66.9	66.9	34	37.6	1	4	270	0.00	30.285 
13:45	66.9	66.9	66.9	36	39.1	2	3	338	0.00	30.281 
13:50	66.9	66.9	66.9	35	38.4	1	3	292	0.00	30.281 
13:55	66.9	66.9	66.9	35	38.4	1	3	292	0.00	30.281 
14:00	67.1	67.1	67.1	38	40.6	0	2	292	0.00	30.278 
14:05	66.9	66.9	66.9	33	36.9	2	5	338	0.00	30.278 
14:10	66.9	66.9	66.9	34	37.6	1	4	292	0.00	30.278 
14:15	66.9	66.9	66.9	34	37.6	2	4	315	0.00	30.276 
14:20	66.9	66.9	66.9	34	37.6	1	4	315	0.00	30.276 
14:25	66.8	66.8	66.8	34	37.5	1	3	315	0.00	30.276 
14:30	66.8	66.8	66.8	34	37.5	1	3	315	0.00	30.271 
14:35	67.1	67.1	67.1	33	37.0	1	3	315	0.00	30.271 
14:40	67.6	67.6	67.6	32	36.7	1	3	315	0.00	30.271 
14:45	67.6	67.6	67.6	34	38.2	2	4	315	0.00	30.264 
14:50	67.6	67.6	67.6	33	37.5	1	3	270	0.00	30.264 
14:55	67.9	67.9	67.9	34	38.5	1	3	270	0.00	30.264 
15:00	67.9	67.9	67.9	34	38.5	2	4	270	0.00	30.264 
15:05	67.6	67.6	67.6	34	38.2	0	4	315	0.00	30.264 
15:10	67.8	67.8	67.8	36	39.9	1	5	315	0.00	30.264 
15:15	67.8	67.8	67.8	36	39.9	1	3	315	0.00	30.269 
15:20	67.4	67.4	67.4	34	38.1	2	5	270	0.00	30.269 
15:25	67.6	67.6	67.6	35	39.0	2	5	270	0.00	30.269 
15:30	67.8	67.8	67.8	35	39.1	2	4	270	0.00	30.268 
15:35	67.4	67.4	67.4	34	38.1	2	5	292	0.00	30.268 
15:40	67.6	67.6	67.6	35	39.0	1	4	292	0.00	30.268 
15:45	67.4	67.4	67.4	34	38.1	2	5	292	0.00	30.267 
15:50	67.8	67.8	67.8	35	39.1	2	4	270	0.00	30.267 
15:55	67.8	67.8	67.8	35	39.1	2	5	292	0.00	30.267 
16:00	67.6	67.6	67.6	37	40.4	2	5	292	0.00	30.268 
16:05	67.4	67.4	67.4	37	40.2	1	5	338	0.00	30.268 
16:10	67.6	67.6	67.6	39	41.8	0	3	338	0.00	30.268 
16:15	67.6	67.6	67.6	38	41.1	1	3	338	0.00	30.268 
16:20	67.3	67.3	67.3	38	40.8	1	4	315	0.00	30.268 
16:25	67.4	67.4	67.4	39	41.6	1	4	292	0.00	30.268 
16:30	67.3	67.3	67.3	37	40.1	1	2	292	0.00	30.267 
16:35	67.1	67.1	67.1	36	39.2	1	4	292	0.00	30.267 
16:40	67.3	67.3	67.3	36	39.4	1	3	292	0.00	30.267 
16:45	67.3	67.3	67.3	37	40.1	1	3	292	0.00	30.268 
16:50	67.1	67.1	67.1	36	39.2	0	2	315	0.00	30.268 
16:55	66.9	66.9	66.9	37	39.8	1	3	315	0.00	30.268 
17:00	66.9	66.9	66.9	38	40.5	1	3	292	0.00	30.269 
17:05	66.8	66.8	66.8	37	39.7	0	2	292	0.00	30.269 
17:10	66.6	66.6	66.6	38	40.2	1	3	292	0.00	30.269 
17:15	66.6	66.6	66.6	37	39.5	1	3	315	0.00	30.271 
17:20	66.4	66.4	66.4	37	39.3	1	4	315	0.00	30.271 
17:25	66.4	66.4	66.4	38	40.0	1	3	315	0.00	30.271 
17:30	66.4	66.4	66.4	38	40.0	0	3	315	0.00	30.273 
17:35	66.3	66.3	66.3	38	39.9	0	2	315	0.00	30.273 
17:40	66.3	66.3	66.3	37	39.2	1	3	315	0.00	30.273 
17:45	66.0	66.0	66.0	39	40.3	1	2	315	0.00	30.272 
17:50	66.0	66.0	66.0	39	40.3	0	1	315	0.00	30.272 
17:55	65.8	65.8	65.8	38	39.5	1	3	315	0.00	30.272 
18:00	65.6	65.6	65.6	39	40.0	0	2	315	0.00	30.274 
18:05	65.3	65.3	65.3	40	40.4	0	2	315	0.00	30.274 
18:10	65.2	65.2	65.2	39	39.6	1	3	315	0.00	30.274 
18:15	64.8	64.8	64.8	39	39.3	0	2	315	0.00	30.278 
18:20	64.7	64.7	64.7	39	39.2	0	1	315	0.00	30.278 
18:25	64.3	64.3	64.3	38	38.1	0	2	315	0.00	30.278 
18:30	64.0	64.0	64.0	38	37.9	0	1	315	0.00	30.283 
18:35	63.7	63.7	63.7	40	38.9	0	1	315	0.00	30.283 
18:40	63.4	63.4	63.4	40	38.7	0	1	315	0.00	30.283 
18:45	63.1	63.1	63.1	41	39.0	0	1	315	0.00	30.290 
18:50	62.6	62.6	62.6	41	38.6	0	1	315	0.00	30.290 
18:55	62.3	62.3	62.3	42	38.9	0	1	315	0.00	30.290 
19:00	61.8	61.8	61.8	42	38.5	0	1	315	0.00	30.292 
19:05	61.5	61.5	61.5	42	38.2	0	1	315	0.00	30.292 
19:10	61.3	61.3	61.3	42	38.0	0	1	315	0.00	30.292 
19:15	61.2	61.2	61.2	42	37.9	0	1	315	0.00	30.298 
19:20	60.9	60.9	60.9	42	37.7	0	1	315	0.00	30.298 
19:25	60.7	60.7	60.7	43	38.1	0	1	315	0.00	30.298 
19:30	60.2	60.2	60.2	43	37.6	0	1	315	0.00	30.304 
19:35	59.9	59.9	59.9	44	37.9	0	1	315	0.00	30.304 
19:40	59.6	59.6	59.6	45	38.2	0	2	315	0.00	30.304 
19:45	59.3	59.3	59.3	46	38.5	0	1	315	0.00	30.311 
19:50	59.0	59.0	59.0	46	38.2	0	2	315	0.00	30.311 
19:55	58.7	58.7	58.7	47	38.5	0	1	315	0.00	30.311 
20:00	58.4	58.4	58.4	48	38.8	0	2	315	0.00	30.315 
20:05	58.3	58.3	58.3	48	38.7	0	2	315	0.00	30.315 
20:10	58.1	58.1	58.1	49	39.0	0	2	315	0.00	30.315 
20:15	58.0	58.0	58.0	49	38.9	1	3	315	0.00	30.317 
20:20	57.6	57.6	57.6	50	39.1	1	3	315	0.00	30.317 
20:25	57.5	57.5	57.5	50	39.0	1	4	315	0.00	30.317 
20:30	57.2	57.2	57.2	51	39.2	0	1	315	0.00	30.325 
20:35	56.7	56.7	56.7	51	38.8	0	1	315	0.00	30.325 
20:40	56.5	56.5	56.5	52	39.1	0	2	315	0.00	30.325 
20:45	56.2	56.2	56.2	52	38.8	0	2	315	0.00	30.330 
20:50	56.0	56.0	56.0	53	39.1	0	2	315	0.00	30.330 
20:55	55.7	55.7	55.7	54	39.3	0	2	315	0.00	30.330 
21:00	55.4	55.4	55.4	54	39.0	0	1	315	0.00	30.333 
21:05	55.1	55.1	55.1	55	39.2	0	1	315	0.00	30.333 
21:10	55.0	55.0	55.0	56	39.6	0	2	315	0.00	30.333 
21:15	54.7	54.7	54.7	57	39.8	0	1	315	0.00	30.334 
21:20	54.5	54.5	54.5	58	40.0	0	2	315	0.00	30.334 
21:25	54.2	54.2	54.2	58	39.7	0	1	315	0.00	30.334 
21:30	53.9	53.9	53.9	59	39.9	0	2	315	0.00	30.336 
21:35	53.6	53.6	53.6	60	40.1	0	1	315	0.00	30.336 
21:40	53.5	53.5	53.5	61	40.4	0	1	315	0.00	30.336 
21:45	53.2	53.2	53.2	61	40.1	0	1	315	0.00	30.340 
21:50	52.9	52.9	52.9	62	40.2	0	1	315	0.00	30.340 
21:55	52.6	52.6	52.6	62	40.0	0	1	315	0.00	30.340 
22:00	52.5	52.5	52.5	63	40.3	0	1	315	0.00	30.344 
22:05	52.3	52.3	52.3	64	40.5	0	1	315	0.00	30.344 
22:10	52.2	52.2	52.2	64	40.4	0	1	315	0.00	30.344 
22:15	51.9	51.9	51.9	65	40.5	0	1	315	0.00	30.341 
22:20	51.7	51.7	51.7	65	40.3	0	1	315	0.00	30.341 
22:25	51.4	51.4	51.4	66	40.4	0	1	315	0.00	30.341 
22:30	51.3	51.3	51.3	66	40.3	0	1	315	0.00	30.344 
22:35	51.1	51.1	51.1	67	40.5	0	1	315	0.00	30.344 
22:40	51.0	51.0	51.0	68	40.8	0	1	315	0.00	30.344 
22:45	50.7	50.7	50.7	68	40.5	0	0	---	0.00	30.343 
22:50	50.5	50.5	50.5	69	40.7	0	0	---	0.00	30.343 
22:55	50.4	50.4	50.4	69	40.6	0	1	315	0.00	30.343 
23:00	50.1	50.1	50.1	70	40.7	0	1	315	0.00	30.345 
23:05	49.9	49.9	49.9	70	40.5	0	0	---	0.00	30.345 
23:10	49.8	49.8	49.8	71	40.8	0	0	---	0.00	30.345 
23:15	49.5	49.5	49.5	72	40.9	0	0	---	0.00	30.343 
23:20	49.4	49.4	49.4	73	41.1	0	0	---	0.00	30.343 
23:25	49.1	49.1	49.1	73	40.8	0	0	---	0.00	30.343 
23:30	48.9	48.9	48.9	73	40.6	0	0	---	0.00	30.341 
23:35	48.6	48.6	48.6	74	40.7	0	0	---	0.00	30.341 
23:40	48.3	48.3	48.3	75	40.7	0	0	---	0.00	30.341 
23:45	48.2	48.2	48.2	76	41.0	0	0	---	0.00	30.346 
23:50	48.0	48.0	48.0	77	41.1	0	0	---	0.00	30.346 
23:55	48.0	48.0	48.0	77	41.1	0	1	315	0.00	30.346 

CoCoRaHS
IN-AL-39
A2 Web Hosting
Creative Commons License
GoDaddy
search engine by freefind advanced

loaded 2018-11-13 16:59:10 • last modified 2010-11-18 10:43:29
Privacy PolicyDisclaimer
• wx.awcolley.com is powered by PmWiki v.2002016 •
• all content (unless otherwise noted) © 2018 A W Colley